createdAt,value
2023-02-27T00:00:18.623Z,62.82
2023-02-27T00:00:53.290Z,62.96
2023-02-27T00:01:25.813Z,62.65
2023-02-27T00:01:58.190Z,62.80
2023-02-27T00:02:34.216Z,62.96
2023-02-27T00:03:06.632Z,62.73
2023-02-27T00:03:39.021Z,62.79
2023-02-27T00:04:13.803Z,62.22
2023-02-27T00:04:48.623Z,62.82
2023-02-27T00:05:22.643Z,62.27
2023-02-27T00:05:56.439Z,62.30
2023-02-27T00:06:31.827Z,62.67
2023-02-27T00:07:04.004Z,62.82
2023-02-27T00:07:36.130Z,62.60
2023-02-27T00:08:11.093Z,62.86
2023-02-27T00:08:43.287Z,62.56
2023-02-27T00:09:15.409Z,62.30
2023-02-27T00:09:50.097Z,62.51
2023-02-27T00:10:22.449Z,62.27
2023-02-27T00:10:54.601Z,62.40
2023-02-27T00:11:29.577Z,62.54
2023-02-27T00:12:02.494Z,62.48
2023-02-27T00:12:37.821Z,62.16
2023-02-27T00:13:12.910Z,62.13
2023-02-27T00:13:45.274Z,62.51
2023-02-27T00:14:18.070Z,62.45
2023-02-27T00:14:52.768Z,62.04
2023-02-27T00:15:25.121Z,62.47
2023-02-27T00:16:00.179Z,62.25
2023-02-27T00:16:32.329Z,62.04
2023-02-27T00:17:04.690Z,62.05
2023-02-27T00:17:39.773Z,61.96
2023-02-27T00:18:11.945Z,61.68
2023-02-27T00:18:44.040Z,61.59
2023-02-27T00:19:18.931Z,61.71
2023-02-27T00:19:53.776Z,61.90
2023-02-27T00:20:26.468Z,61.37
2023-02-27T00:21:01.240Z,61.25
2023-02-27T00:21:35.829Z,61.46
2023-02-27T00:22:08.943Z,61.28
2023-02-27T00:22:42.078Z,61.32
2023-02-27T00:23:17.160Z,61.30
2023-02-27T00:23:49.357Z,61.45
2023-02-27T00:24:22.596Z,61.30
2023-02-27T00:24:57.305Z,61.05
2023-02-27T00:25:29.583Z,61.19
2023-02-27T00:26:01.771Z,61.35
2023-02-27T00:26:36.725Z,61.21
2023-02-27T00:27:08.812Z,61.00
2023-02-27T00:27:41.799Z,60.75
2023-02-27T00:28:16.608Z,61.24
2023-02-27T00:28:48.707Z,61.04
2023-02-27T00:29:20.907Z,61.17
2023-02-27T00:29:59.584Z,60.71
2023-02-27T00:30:31.700Z,60.57
2023-02-27T00:31:06.769Z,60.67
2023-02-27T00:31:39.170Z,60.92
2023-02-27T00:32:11.371Z,60.99
2023-02-27T00:32:46.604Z,60.97
2023-02-27T00:33:18.845Z,60.99
2023-02-27T00:33:53.717Z,60.68
2023-02-27T00:34:26.246Z,61.05
2023-02-27T00:35:01.058Z,60.84
2023-02-27T00:35:35.833Z,61.05
2023-02-27T00:36:08.377Z,60.74
2023-02-27T00:36:40.601Z,61.06
2023-02-27T00:37:15.356Z,60.48
2023-02-27T00:37:47.545Z,60.59
2023-02-27T00:38:19.645Z,60.73
2023-02-27T00:38:54.393Z,60.71
2023-02-27T00:39:26.568Z,60.68
2023-02-27T00:39:58.686Z,60.76
2023-02-27T00:40:35.962Z,60.41
2023-02-27T00:41:08.200Z,60.72
2023-02-27T00:41:40.376Z,60.73
2023-02-27T00:42:15.117Z,60.33
2023-02-27T00:42:48.775Z,60.46
2023-02-27T00:43:20.860Z,60.74
2023-02-27T00:43:55.538Z,60.88
2023-02-27T00:44:27.673Z,60.50
2023-02-27T00:44:59.887Z,60.33
2023-02-27T00:45:34.579Z,60.86
2023-02-27T00:46:06.971Z,60.55
2023-02-27T00:46:39.207Z,60.55
2023-02-27T00:47:14.153Z,60.70
2023-02-27T00:47:46.458Z,60.58
2023-02-27T00:48:18.656Z,60.75
2023-02-27T00:48:53.472Z,60.51
2023-02-27T00:49:26.243Z,60.74
2023-02-27T00:50:01.181Z,60.32
2023-02-27T00:50:35.957Z,60.54
2023-02-27T00:51:08.112Z,60.78
2023-02-27T00:51:40.343Z,60.53
2023-02-27T00:52:15.096Z,60.72
2023-02-27T00:52:47.276Z,60.64
2023-02-27T00:53:22.091Z,60.63
2023-02-27T00:53:54.192Z,61.08
2023-02-27T00:54:26.358Z,60.79
2023-02-27T00:55:01.061Z,61.01
2023-02-27T00:55:33.164Z,60.74
2023-02-27T00:56:05.833Z,60.84
2023-02-27T00:56:41.226Z,60.65
2023-02-27T00:57:13.461Z,61.08
2023-02-27T00:57:46.269Z,61.11
2023-02-27T00:58:21.191Z,60.91
2023-02-27T00:58:53.337Z,60.79
2023-02-27T00:59:27.198Z,60.77
2023-02-27T01:00:02.009Z,60.58
2023-02-27T01:00:34.220Z,60.94
2023-02-27T01:01:06.370Z,60.70
2023-02-27T01:01:41.239Z,60.41
2023-02-27T01:02:13.545Z,60.72
2023-02-27T01:02:45.807Z,60.55
2023-02-27T01:03:20.605Z,60.78
2023-02-27T01:03:52.714Z,60.71
2023-02-27T01:04:24.987Z,60.84
2023-02-27T01:05:04.856Z,60.56
2023-02-27T01:05:36.978Z,60.72
2023-02-27T01:06:09.205Z,60.80
2023-02-27T01:06:43.909Z,60.83
2023-02-27T01:07:16.209Z,60.88
2023-02-27T01:07:50.956Z,60.62
2023-02-27T01:08:23.091Z,60.81
2023-02-27T01:08:56.004Z,60.93
2023-02-27T01:09:32.661Z,60.62
2023-02-27T01:10:06.238Z,61.00
2023-02-27T01:10:41.056Z,60.69
2023-02-27T01:11:13.191Z,60.43
2023-02-27T01:11:45.331Z,60.87
2023-02-27T01:12:20.133Z,60.58
2023-02-27T01:12:52.411Z,60.79
2023-02-27T01:13:24.566Z,61.00
2023-02-27T01:14:00.642Z,60.91
2023-02-27T01:14:32.811Z,60.65
2023-02-27T01:15:06.767Z,60.86
2023-02-27T01:15:41.614Z,60.67
2023-02-27T01:16:14.877Z,60.78
2023-02-27T01:16:47.010Z,60.81
2023-02-27T01:17:23.183Z,60.77
2023-02-27T01:17:55.446Z,60.73
2023-02-27T01:18:27.617Z,61.08
2023-02-27T01:19:03.607Z,61.26
2023-02-27T01:19:35.708Z,60.82
2023-02-27T01:20:12.585Z,61.03
2023-02-27T01:20:47.335Z,60.97
2023-02-27T01:21:19.700Z,61.11
2023-02-27T01:21:51.870Z,61.18
2023-02-27T01:22:27.337Z,60.80
2023-02-27T01:22:59.503Z,60.89
2023-02-27T01:23:31.616Z,60.76
2023-02-27T01:24:06.652Z,61.11
2023-02-27T01:24:38.826Z,60.72
2023-02-27T01:25:14.033Z,60.77
2023-02-27T01:25:47.017Z,60.68
2023-02-27T01:26:19.137Z,61.03
2023-02-27T01:26:54.783Z,60.76
2023-02-27T01:27:27.185Z,60.90
2023-02-27T01:27:59.340Z,61.01
2023-02-27T01:28:34.083Z,60.61
2023-02-27T01:29:06.651Z,60.79
2023-02-27T01:29:38.936Z,60.71
2023-02-27T01:30:16.336Z,61.00
2023-02-27T01:30:49.922Z,61.05
2023-02-27T01:31:22.066Z,61.37
2023-02-27T01:31:56.936Z,61.02
2023-02-27T01:32:29.205Z,61.24
2023-02-27T01:33:01.429Z,61.38
2023-02-27T01:33:36.144Z,61.18
2023-02-27T01:34:08.509Z,60.93
2023-02-27T01:34:40.615Z,60.94
2023-02-27T01:35:18.066Z,61.20
2023-02-27T01:35:50.264Z,61.34
2023-02-27T01:36:22.431Z,61.37
2023-02-27T01:36:57.205Z,61.21
2023-02-27T01:37:29.324Z,61.10
2023-02-27T01:38:01.625Z,60.86
2023-02-27T01:38:36.352Z,61.20
2023-02-27T01:39:08.632Z,61.43
2023-02-27T01:39:40.764Z,61.40
2023-02-27T01:40:16.890Z,61.54
2023-02-27T01:40:49.116Z,61.32
2023-02-27T01:41:21.359Z,61.40
2023-02-27T01:41:56.542Z,61.46
2023-02-27T01:42:29.270Z,61.25
2023-02-27T01:43:01.996Z,61.49
2023-02-27T01:43:37.499Z,61.18
2023-02-27T01:44:11.903Z,61.29
2023-02-27T01:45:13.837Z,61.42
2023-02-27T01:45:50.543Z,61.34
2023-02-27T01:46:23.525Z,61.80
2023-02-27T01:46:55.816Z,61.84
2023-02-27T01:47:30.673Z,61.51
2023-02-27T01:48:12.139Z,61.59
2023-02-27T01:48:45.359Z,61.35
2023-02-27T01:49:24.507Z,61.47
2023-02-27T01:49:56.619Z,61.69
2023-02-27T01:50:32.223Z,61.75
2023-02-27T01:51:11.413Z,62.00
2023-02-27T01:51:47.960Z,61.73
2023-02-27T01:52:20.252Z,61.65
2023-02-27T01:52:59.047Z,61.73
2023-02-27T01:53:34.305Z,61.78
2023-02-27T01:54:12.153Z,61.55
2023-02-27T01:54:44.268Z,62.07
2023-02-27T01:55:16.640Z,61.82
2023-02-27T01:55:52.472Z,61.45
2023-02-27T01:56:26.256Z,61.90
2023-02-27T01:57:02.698Z,61.47
2023-02-27T01:57:35.468Z,61.86
2023-02-27T01:58:12.283Z,61.81
2023-02-27T01:58:48.375Z,61.56
2023-02-27T01:59:21.901Z,61.96
2023-02-27T01:59:55.850Z,61.53
2023-02-27T02:00:31.694Z,61.75
2023-02-27T02:01:04.054Z,61.84
2023-02-27T02:01:37.314Z,61.65
2023-02-27T02:02:17.788Z,62.00
2023-02-27T02:02:52.777Z,61.66
2023-02-27T02:03:31.455Z,61.99
2023-02-27T02:04:13.295Z,61.75
2023-02-27T02:04:46.456Z,61.60
2023-02-27T02:05:19.750Z,61.47
2023-02-27T02:06:00.389Z,61.64
2023-02-27T02:06:35.949Z,61.73
2023-02-27T02:07:12.249Z,61.54
2023-02-27T02:07:48.406Z,61.53
2023-02-27T02:08:22.158Z,62.01
2023-02-27T02:08:56.328Z,62.04
2023-02-27T02:09:33.085Z,61.89
2023-02-27T02:10:07.904Z,61.63
2023-02-27T02:10:41.261Z,61.86
2023-02-27T02:11:18.590Z,61.59
2023-02-27T02:11:51.029Z,61.99
2023-02-27T02:12:27.038Z,61.99
2023-02-27T02:13:02.483Z,61.98
2023-02-27T02:13:35.490Z,61.95
2023-02-27T02:14:10.984Z,62.01
2023-02-27T02:14:47.717Z,62.07
2023-02-27T02:15:25.874Z,62.07
2023-02-27T02:16:14.616Z,61.78
2023-02-27T02:17:15.908Z,61.95
2023-02-27T02:18:01.117Z,62.31
2023-02-27T02:18:41.007Z,62.16
2023-02-27T02:19:44.028Z,62.03
2023-02-27T02:21:12.781Z,62.09
2023-02-27T02:22:28.228Z,62.37
2023-02-27T02:23:50.173Z,62.36
2023-02-27T02:24:52.219Z,62.64
2023-02-27T02:26:01.773Z,62.50
2023-02-27T02:26:44.406Z,62.38
2023-02-27T02:27:37.235Z,62.69
2023-02-27T02:28:23.732Z,62.59
2023-02-27T02:29:31.438Z,62.65
2023-02-27T02:30:54.430Z,62.72
2023-02-27T02:32:07.814Z,62.77
2023-02-27T02:33:11.909Z,62.99
2023-02-27T02:34:25.911Z,62.77
2023-02-27T02:35:29.725Z,62.54
2023-02-27T02:36:45.801Z,63.05
2023-02-27T02:37:52.482Z,62.70
2023-02-27T02:38:56.871Z,63.12
2023-02-27T02:40:06.695Z,63.05
2023-02-27T02:40:44.790Z,62.92
2023-02-27T02:41:28.990Z,62.65
2023-02-27T02:42:05.326Z,63.03
2023-02-27T02:42:43.622Z,63.22
2023-02-27T02:43:27.661Z,63.18
2023-02-27T02:44:05.237Z,62.80
2023-02-27T02:44:48.046Z,63.13
2023-02-27T02:45:30.892Z,62.79
2023-02-27T02:46:10.532Z,63.20
2023-02-27T02:46:47.935Z,63.04
2023-02-27T02:47:28.907Z,63.03
2023-02-27T02:48:09.229Z,63.22
2023-02-27T02:48:47.734Z,62.94
2023-02-27T02:49:31.561Z,63.03
2023-02-27T02:50:11.246Z,63.04
2023-02-27T02:50:50.540Z,63.03
2023-02-27T02:51:37.408Z,62.65
2023-02-27T02:52:17.745Z,63.17
2023-02-27T02:52:57.109Z,63.13
2023-02-27T02:53:40.580Z,63.06
2023-02-27T02:54:21.781Z,63.02
2023-02-27T02:54:59.570Z,62.94
2023-02-27T02:55:40.253Z,62.99
2023-02-27T02:56:21.150Z,62.67
2023-02-27T02:57:00.472Z,63.18
2023-02-27T02:57:41.093Z,62.73
2023-02-27T02:58:20.469Z,63.09
2023-02-27T02:59:02.624Z,62.72
2023-02-27T02:59:40.268Z,62.97
2023-02-27T03:00:18.824Z,62.86
2023-02-27T03:00:59.301Z,63.23
2023-02-27T03:01:33.738Z,62.80
2023-02-27T03:02:12.575Z,62.87
2023-02-27T03:02:49.223Z,63.02
2023-02-27T03:03:27.269Z,62.76
2023-02-27T03:04:09.828Z,63.10
2023-02-27T03:04:46.908Z,63.22
2023-02-27T03:05:25.168Z,62.94
2023-02-27T03:06:04.890Z,63.24
2023-02-27T03:06:41.728Z,62.85
2023-02-27T03:07:21.040Z,63.20
2023-02-27T03:08:00.493Z,63.12
2023-02-27T03:08:38.347Z,63.33
2023-02-27T03:09:17.997Z,63.47
2023-02-27T03:09:58.251Z,63.25
2023-02-27T03:10:35.143Z,63.25
2023-02-27T03:11:08.167Z,63.15
2023-02-27T03:11:48.343Z,62.97
2023-02-27T03:12:25.429Z,63.29
2023-02-27T03:13:05.510Z,63.36
2023-02-27T03:13:41.628Z,63.33
2023-02-27T03:14:21.927Z,63.03
2023-02-27T03:15:02.012Z,63.12
2023-02-27T03:15:39.966Z,63.11
2023-02-27T03:16:20.354Z,63.20
2023-02-27T03:16:56.168Z,63.12
2023-02-27T03:17:39.531Z,63.06
2023-02-27T03:18:20.861Z,63.10
2023-02-27T03:18:57.050Z,63.12
2023-02-27T03:19:34.609Z,63.04
2023-02-27T03:20:12.552Z,63.23
2023-02-27T03:20:49.605Z,63.42
2023-02-27T03:21:28.110Z,63.17
2023-02-27T03:22:07.537Z,63.42
2023-02-27T03:22:44.896Z,63.25
2023-02-27T03:23:21.105Z,63.13
2023-02-27T03:23:59.635Z,62.95
2023-02-27T03:24:40.096Z,63.08
2023-02-27T03:25:14.546Z,63.11
2023-02-27T03:25:57.853Z,63.03
2023-02-27T03:26:40.064Z,62.83
2023-02-27T03:27:13.682Z,62.92
2023-02-27T03:27:55.450Z,63.17
2023-02-27T03:28:32.754Z,63.13
2023-02-27T03:29:10.342Z,63.19
2023-02-27T03:29:52.994Z,62.89
2023-02-27T03:30:31.208Z,63.13
2023-02-27T03:31:11.769Z,63.01
2023-02-27T03:31:50.226Z,63.12
2023-02-27T03:32:29.373Z,63.09
2023-02-27T03:33:10.984Z,62.92
2023-02-27T03:33:49.379Z,62.80
2023-02-27T03:34:26.556Z,62.46
2023-02-27T03:35:01.728Z,62.63
2023-02-27T03:35:45.566Z,62.24
2023-02-27T03:36:29.706Z,62.49
2023-02-27T03:37:06.934Z,62.40
2023-02-27T03:37:53.233Z,62.67
2023-02-27T03:38:36.324Z,62.78
2023-02-27T03:39:17.246Z,62.74
2023-02-27T03:39:58.012Z,62.65
2023-02-27T03:40:34.696Z,62.24
2023-02-27T03:41:14.943Z,62.45
2023-02-27T03:42:05.926Z,62.25
2023-02-27T03:43:07.235Z,62.62
2023-02-27T03:43:59.709Z,62.64
2023-02-27T03:44:40.426Z,62.94
2023-02-27T03:45:23.032Z,62.43
2023-02-27T03:46:00.555Z,62.24
2023-02-27T03:46:32.929Z,62.71
2023-02-27T03:47:07.824Z,62.68
2023-02-27T03:47:40.170Z,62.73
2023-02-27T03:48:13.188Z,62.39
2023-02-27T03:48:49.260Z,62.41
2023-02-27T03:49:21.611Z,62.16
2023-02-27T03:49:56.043Z,62.27
2023-02-27T03:50:30.937Z,62.01
2023-02-27T03:51:03.852Z,62.45
2023-02-27T03:51:36.735Z,62.40
2023-02-27T03:52:09.195Z,62.17
2023-02-27T03:52:44.161Z,62.31
2023-02-27T03:53:21.768Z,62.04
2023-02-27T03:54:01.714Z,62.08
2023-02-27T03:54:41.517Z,62.07
2023-02-27T03:55:19.265Z,61.92
2023-02-27T03:55:53.693Z,62.05
2023-02-27T03:56:32.472Z,62.05
2023-02-27T03:57:06.815Z,62.15
2023-02-27T03:57:40.278Z,61.86
2023-02-27T03:58:15.474Z,61.92
2023-02-27T03:58:49.504Z,61.99
2023-02-27T03:59:23.316Z,62.05
2023-02-27T04:00:00.752Z,61.77
2023-02-27T04:00:33.559Z,61.75
2023-02-27T04:01:05.920Z,61.77
2023-02-27T04:01:40.990Z,61.54
2023-02-27T04:02:13.560Z,61.94
2023-02-27T04:02:50.279Z,61.91
2023-02-27T04:03:27.870Z,61.46
2023-02-27T04:04:05.117Z,61.95
2023-02-27T04:04:58.122Z,61.66
2023-02-27T04:06:22.323Z,62.00
2023-02-27T04:07:14.055Z,61.96
2023-02-27T04:07:59.576Z,62.05
2023-02-27T04:08:47.261Z,61.64
2023-02-27T04:09:29.270Z,61.99
2023-02-27T04:10:42.106Z,62.00
2023-02-27T04:11:32.763Z,61.70
2023-02-27T04:12:14.165Z,61.96
2023-02-27T04:13:12.053Z,61.92
2023-02-27T04:13:50.536Z,61.97
2023-02-27T04:14:50.241Z,61.66
2023-02-27T04:15:35.974Z,62.06
2023-02-27T04:16:31.404Z,61.65
2023-02-27T04:17:16.425Z,61.80
2023-02-27T04:17:59.022Z,62.04
2023-02-27T04:18:50.812Z,61.51
2023-02-27T04:19:40.530Z,61.65
2023-02-27T04:20:33.884Z,61.66
2023-02-27T04:21:13.022Z,61.60
2023-02-27T04:21:57.303Z,62.00
2023-02-27T04:22:35.805Z,62.03
2023-02-27T04:23:16.066Z,61.70
2023-02-27T04:23:50.556Z,61.80
2023-02-27T04:24:36.434Z,62.06
2023-02-27T04:25:30.412Z,61.87
2023-02-27T04:26:18.031Z,61.77
2023-02-27T04:26:57.230Z,62.02
2023-02-27T04:27:37.430Z,61.72
2023-02-27T04:28:20.266Z,61.95
2023-02-27T04:29:03.134Z,61.78
2023-02-27T04:29:42.066Z,61.45
2023-02-27T04:30:28.712Z,61.46
2023-02-27T04:31:08.706Z,61.72
2023-02-27T04:31:46.253Z,61.59
2023-02-27T04:32:28.769Z,61.58
2023-02-27T04:33:07.673Z,61.47
2023-02-27T04:33:48.145Z,61.76
2023-02-27T04:34:23.622Z,61.44
2023-02-27T04:35:00.040Z,61.64
2023-02-27T04:35:41.303Z,61.50
2023-02-27T04:36:23.524Z,61.90
2023-02-27T04:37:03.862Z,61.47
2023-02-27T04:37:42.520Z,61.59
2023-02-27T04:38:22.414Z,61.77
2023-02-27T04:39:06.297Z,61.38
2023-02-27T04:39:51.671Z,61.73
2023-02-27T04:40:33.427Z,61.42
2023-02-27T04:41:15.821Z,61.50
2023-02-27T04:41:53.155Z,61.20
2023-02-27T04:42:29.193Z,61.22
2023-02-27T04:43:06.768Z,61.24
2023-02-27T04:43:41.914Z,61.14
2023-02-27T04:44:16.359Z,61.61
2023-02-27T04:44:53.069Z,61.59
2023-02-27T04:45:27.867Z,61.31
2023-02-27T04:46:02.879Z,61.04
2023-02-27T04:46:41.381Z,61.29
2023-02-27T04:47:16.610Z,61.65
2023-02-27T04:47:53.597Z,61.31
2023-02-27T04:48:33.215Z,61.42
2023-02-27T04:49:12.520Z,61.33
2023-02-27T04:49:48.338Z,61.11
2023-02-27T04:50:28.863Z,61.48
2023-02-27T04:51:05.533Z,61.26
2023-02-27T04:51:44.499Z,61.10
2023-02-27T04:52:23.505Z,61.22
2023-02-27T04:53:02.094Z,61.36
2023-02-27T04:53:41.774Z,61.52
2023-02-27T04:54:18.086Z,61.62
2023-02-27T04:54:55.232Z,61.31
2023-02-27T04:55:33.362Z,61.10
2023-02-27T04:56:14.595Z,61.15
2023-02-27T04:56:52.744Z,61.22
2023-02-27T04:57:33.171Z,61.10
2023-02-27T04:58:07.105Z,61.12
2023-02-27T04:58:45.606Z,61.24
2023-02-27T04:59:25.003Z,61.57
2023-02-27T05:00:00.416Z,61.58
2023-02-27T05:00:35.431Z,61.49
2023-02-27T05:01:18.071Z,61.63
2023-02-27T05:01:55.616Z,61.23
2023-02-27T05:02:33.519Z,61.19
2023-02-27T05:03:14.806Z,61.36
2023-02-27T05:03:50.248Z,61.57
2023-02-27T05:04:25.678Z,61.24
2023-02-27T05:05:03.261Z,61.53
2023-02-27T05:05:38.479Z,61.61
2023-02-27T05:06:11.497Z,61.60
2023-02-27T05:06:48.856Z,61.30
2023-02-27T05:07:25.946Z,61.23
2023-02-27T05:08:03.619Z,61.25
2023-02-27T05:08:48.322Z,61.04
2023-02-27T05:09:27.184Z,61.08
2023-02-27T05:10:02.718Z,61.33
2023-02-27T05:10:42.836Z,61.52
2023-02-27T05:11:27.167Z,61.11
2023-02-27T05:12:06.725Z,61.46
2023-02-27T05:12:45.966Z,61.18
2023-02-27T05:13:22.795Z,61.07
2023-02-27T05:14:01.189Z,61.25
2023-02-27T05:14:38.036Z,61.20
2023-02-27T05:15:14.530Z,61.04
2023-02-27T05:15:52.136Z,61.19
2023-02-27T05:16:29.680Z,61.39
2023-02-27T05:17:07.709Z,61.03
2023-02-27T05:17:49.066Z,60.81
2023-02-27T05:18:22.690Z,61.26
2023-02-27T05:18:55.800Z,60.85
2023-02-27T05:19:30.597Z,61.26
2023-02-27T05:20:05.257Z,61.17
2023-02-27T05:20:49.320Z,60.83
2023-02-27T05:21:30.404Z,61.10
2023-02-27T05:22:18.061Z,60.99
2023-02-27T05:23:02.189Z,60.99
2023-02-27T05:23:44.075Z,60.72
2023-02-27T05:24:27.228Z,60.76
2023-02-27T05:25:08.498Z,61.09
2023-02-27T05:25:49.129Z,61.05
2023-02-27T05:26:35.246Z,60.76
2023-02-27T05:27:17.974Z,60.81
2023-02-27T05:27:54.178Z,60.88
2023-02-27T05:28:37.068Z,60.80
2023-02-27T05:29:17.396Z,60.71
2023-02-27T05:29:50.496Z,60.45
2023-02-27T05:30:28.925Z,60.69
2023-02-27T05:31:07.947Z,60.72
2023-02-27T05:31:47.698Z,60.60
2023-02-27T05:32:30.791Z,60.45
2023-02-27T05:33:08.954Z,60.75
2023-02-27T05:33:49.199Z,60.81
2023-02-27T05:34:28.124Z,60.63
2023-02-27T05:35:08.976Z,60.76
2023-02-27T05:35:51.435Z,60.52
2023-02-27T05:36:30.365Z,60.13
2023-02-27T05:37:08.561Z,60.68
2023-02-27T05:37:47.684Z,60.65
2023-02-27T05:38:25.853Z,60.87
2023-02-27T05:39:01.927Z,60.48
2023-02-27T05:39:40.382Z,60.55
2023-02-27T05:40:17.134Z,60.23
2023-02-27T05:40:54.071Z,60.32
2023-02-27T05:41:35.863Z,60.10
2023-02-27T05:42:14.182Z,60.17
2023-02-27T05:42:53.774Z,59.99
2023-02-27T05:43:31.925Z,60.54
2023-02-27T05:44:09.330Z,60.32
2023-02-27T05:44:45.434Z,60.01
2023-02-27T05:45:24.767Z,59.92
2023-02-27T05:46:01.617Z,60.03
2023-02-27T05:46:37.682Z,60.00
2023-02-27T05:47:16.437Z,59.72
2023-02-27T05:47:54.927Z,60.14
2023-02-27T05:48:30.710Z,60.06
2023-02-27T05:49:11.256Z,59.91
2023-02-27T05:49:47.890Z,60.09
2023-02-27T05:50:23.814Z,59.62
2023-02-27T05:51:01.033Z,59.89
2023-02-27T05:51:35.744Z,59.84
2023-02-27T05:52:12.311Z,59.60
2023-02-27T05:52:50.292Z,60.03
2023-02-27T05:53:27.544Z,59.90
2023-02-27T05:54:03.221Z,59.92
2023-02-27T05:54:39.164Z,60.14
2023-02-27T05:55:20.262Z,60.08
2023-02-27T05:55:55.098Z,59.76
2023-02-27T05:56:35.744Z,59.33
2023-02-27T05:57:13.751Z,59.81
2023-02-27T05:57:51.878Z,59.31
2023-02-27T05:58:27.820Z,59.65
2023-02-27T05:59:06.346Z,59.52
2023-02-27T05:59:44.401Z,59.28
2023-02-27T06:00:21.549Z,59.66
2023-02-27T06:01:00.144Z,59.31
2023-02-27T06:01:33.242Z,59.59
2023-02-27T06:02:05.893Z,59.57
2023-02-27T06:02:41.348Z,59.57
2023-02-27T06:03:15.698Z,59.19
2023-02-27T06:03:50.563Z,59.20
2023-02-27T06:04:22.829Z,59.30
2023-02-27T06:04:55.203Z,59.43
2023-02-27T06:05:30.967Z,59.15
2023-02-27T06:06:06.831Z,59.17
2023-02-27T06:06:42.018Z,59.32
2023-02-27T06:07:17.376Z,58.92
2023-02-27T06:07:49.459Z,58.98
2023-02-27T06:08:22.527Z,58.96
2023-02-27T06:08:57.235Z,58.78
2023-02-27T06:09:29.382Z,58.67
2023-02-27T06:10:01.779Z,58.85
2023-02-27T06:10:37.230Z,58.70
2023-02-27T06:11:09.362Z,58.88
2023-02-27T06:11:46.627Z,58.63
2023-02-27T06:12:19.429Z,58.72
2023-02-27T06:12:51.571Z,58.99
2023-02-27T06:13:27.297Z,59.03
2023-02-27T06:13:59.446Z,59.08
2023-02-27T06:14:31.546Z,58.79
2023-02-27T06:15:06.511Z,58.89
2023-02-27T06:15:39.110Z,59.12
2023-02-27T06:16:20.504Z,59.09
2023-02-27T06:16:52.678Z,58.90
2023-02-27T06:17:24.965Z,58.89
2023-02-27T06:17:59.763Z,58.86
2023-02-27T06:18:31.866Z,58.99
2023-02-27T06:19:05.039Z,58.88
2023-02-27T06:19:39.823Z,58.81
2023-02-27T06:20:12.853Z,58.92
2023-02-27T06:20:48.673Z,58.97
2023-02-27T06:21:20.876Z,58.67
2023-02-27T06:21:52.991Z,58.85
2023-02-27T06:22:27.773Z,58.78
2023-02-27T06:22:59.877Z,58.43
2023-02-27T06:23:34.672Z,58.59
2023-02-27T06:24:07.000Z,58.28
2023-02-27T06:24:39.541Z,58.57
2023-02-27T06:25:14.375Z,58.49
2023-02-27T06:25:47.169Z,58.40
2023-02-27T06:26:21.921Z,58.27
2023-02-27T06:26:56.651Z,58.60
2023-02-27T06:27:28.836Z,58.76
2023-02-27T06:28:03.950Z,58.56
2023-02-27T06:28:36.118Z,58.45
2023-02-27T06:29:10.940Z,58.34
2023-02-27T06:29:47.561Z,58.63
2023-02-27T06:30:20.097Z,58.55
2023-02-27T06:30:54.098Z,58.40
2023-02-27T06:31:29.056Z,58.47
2023-02-27T06:32:01.511Z,58.53
2023-02-27T06:32:33.765Z,58.13
2023-02-27T06:33:08.535Z,58.18
2023-02-27T06:33:41.043Z,58.22
2023-02-27T06:34:13.161Z,57.99
2023-02-27T06:34:47.886Z,58.33
2023-02-27T06:35:20.206Z,57.80
2023-02-27T06:35:58.123Z,57.97
2023-02-27T06:36:30.649Z,58.22
2023-02-27T06:37:06.028Z,57.91
2023-02-27T06:37:41.153Z,57.88
2023-02-27T06:38:13.283Z,57.85
2023-02-27T06:38:45.381Z,58.02
2023-02-27T06:39:20.105Z,57.94
2023-02-27T06:39:52.239Z,58.14
2023-02-27T06:40:24.832Z,57.99
2023-02-27T06:40:59.486Z,57.90
2023-02-27T06:41:31.627Z,57.75
2023-02-27T06:42:09.294Z,57.94
2023-02-27T06:42:42.740Z,57.61
2023-02-27T06:43:15.104Z,57.72
2023-02-27T06:43:49.840Z,57.95
2023-02-27T06:44:21.982Z,58.07
2023-02-27T06:44:56.663Z,58.02
2023-02-27T06:45:28.809Z,58.11
2023-02-27T06:46:01.191Z,57.86
2023-02-27T06:46:35.951Z,57.83
2023-02-27T06:47:08.347Z,57.50
2023-02-27T06:47:41.374Z,57.96
2023-02-27T06:48:16.213Z,57.70
2023-02-27T06:48:48.348Z,57.51
2023-02-27T06:49:20.710Z,57.63
2023-02-27T06:49:55.365Z,57.08
2023-02-27T06:50:28.594Z,57.36
2023-02-27T06:51:00.747Z,57.22
2023-02-27T06:51:35.534Z,57.01
2023-02-27T06:52:07.732Z,57.20
2023-02-27T06:52:40.876Z,57.39
2023-02-27T06:53:15.615Z,57.18
2023-02-27T06:53:47.799Z,57.41
2023-02-27T06:54:20.152Z,57.21
2023-02-27T06:54:54.870Z,56.96
2023-02-27T06:55:26.953Z,57.39
2023-02-27T06:55:59.092Z,57.30
2023-02-27T06:56:33.765Z,57.11
2023-02-27T06:57:08.544Z,57.02
2023-02-27T06:57:40.643Z,57.31
2023-02-27T06:58:15.447Z,56.98
2023-02-27T06:58:47.535Z,57.39
2023-02-27T06:59:19.742Z,57.16
2023-02-27T06:59:55.876Z,56.94
2023-02-27T07:00:29.499Z,57.38
2023-02-27T07:01:01.790Z,57.31
2023-02-27T07:01:36.981Z,57.38
2023-02-27T07:02:13.322Z,57.20
2023-02-27T07:02:48.352Z,57.38
2023-02-27T07:03:20.524Z,57.26
2023-02-27T07:03:55.403Z,57.29
2023-02-27T07:04:27.558Z,57.34
2023-02-27T07:04:59.781Z,57.24
2023-02-27T07:05:34.681Z,57.19
2023-02-27T07:06:07.520Z,57.11
2023-02-27T07:07:35.795Z,56.88
2023-02-27T07:07:37.981Z,57.19
2023-02-27T07:08:13.748Z,57.27
2023-02-27T07:09:00.891Z,57.18
2023-02-27T07:09:40.795Z,56.96
2023-02-27T07:10:14.393Z,57.10
2023-02-27T07:10:49.287Z,57.42
2023-02-27T07:11:21.474Z,56.99
2023-02-27T07:11:53.587Z,57.10
2023-02-27T07:12:30.857Z,56.97
2023-02-27T07:13:03.594Z,57.10
2023-02-27T07:13:36.531Z,57.04
2023-02-27T07:14:12.590Z,57.00
2023-02-27T07:14:44.692Z,57.09
2023-02-27T07:15:17.417Z,56.87
2023-02-27T07:15:53.095Z,56.82
2023-02-27T07:16:25.510Z,56.78
2023-02-27T07:17:04.577Z,56.57
2023-02-27T07:17:37.997Z,56.67
2023-02-27T07:18:10.084Z,56.76
2023-02-27T07:18:44.933Z,56.64
2023-02-27T07:19:17.253Z,56.57
2023-02-27T07:19:49.408Z,56.75
2023-02-27T07:20:24.199Z,56.53
2023-02-27T07:20:56.372Z,56.84
2023-02-27T07:21:28.661Z,56.64
2023-02-27T07:22:03.614Z,56.99
2023-02-27T07:22:35.891Z,56.92
2023-02-27T07:23:12.519Z,57.01
2023-02-27T07:23:44.738Z,56.94
2023-02-27T07:24:19.522Z,57.32
2023-02-27T07:24:51.698Z,57.30
2023-02-27T07:25:29.134Z,57.54
2023-02-27T07:26:01.225Z,57.56
2023-02-27T07:26:33.398Z,57.47
2023-02-27T07:27:08.047Z,57.39
2023-02-27T07:27:45.672Z,57.55
2023-02-27T07:28:20.523Z,57.20
2023-02-27T07:28:52.670Z,57.30
2023-02-27T07:29:24.763Z,57.35
2023-02-27T07:29:59.768Z,57.31
2023-02-27T07:30:32.232Z,57.05
2023-02-27T07:31:07.143Z,57.03
2023-02-27T07:31:41.902Z,57.25
2023-02-27T07:32:14.020Z,57.04
2023-02-27T07:32:46.368Z,56.80
2023-02-27T07:33:21.198Z,56.88
2023-02-27T07:33:53.370Z,57.03
2023-02-27T07:34:25.541Z,56.72
2023-02-27T07:35:00.216Z,56.80
2023-02-27T07:35:32.503Z,56.38
2023-02-27T07:36:07.766Z,56.71
2023-02-27T07:36:40.079Z,56.63
2023-02-27T07:37:12.175Z,57.03
2023-02-27T07:37:46.819Z,57.14
2023-02-27T07:38:19.268Z,56.81
2023-02-27T07:38:54.335Z,56.66
2023-02-27T07:39:26.489Z,57.10
2023-02-27T07:40:01.339Z,56.53
2023-02-27T07:40:36.114Z,56.63
2023-02-27T07:41:12.100Z,56.67
2023-02-27T07:41:50.767Z,56.69
2023-02-27T07:42:25.402Z,56.83
2023-02-27T07:43:02.647Z,56.89
2023-02-27T07:43:36.362Z,56.88
2023-02-27T07:44:11.369Z,56.73
2023-02-27T07:44:43.569Z,56.45
2023-02-27T07:45:18.490Z,56.29
2023-02-27T07:45:53.330Z,56.25
2023-02-27T07:46:28.365Z,56.33
2023-02-27T07:47:00.696Z,56.68
2023-02-27T07:47:35.517Z,56.23
2023-02-27T07:48:07.613Z,56.22
2023-02-27T07:48:40.506Z,56.14
2023-02-27T07:49:15.663Z,56.09
2023-02-27T07:49:50.717Z,56.16
2023-02-27T07:50:22.868Z,56.02
2023-02-27T07:50:57.617Z,56.27
2023-02-27T07:51:29.858Z,55.92
2023-02-27T07:52:04.712Z,55.84
2023-02-27T07:52:38.564Z,55.63
2023-02-27T07:53:13.585Z,56.08
2023-02-27T07:53:45.661Z,56.02
2023-02-27T07:54:20.146Z,56.15
2023-02-27T07:54:55.083Z,55.86
2023-02-27T07:55:27.241Z,55.78
2023-02-27T07:56:02.215Z,56.06
2023-02-27T07:56:35.797Z,56.09
2023-02-27T07:57:07.902Z,55.80
2023-02-27T07:57:42.617Z,55.77
2023-02-27T07:58:17.460Z,56.08